CES2129 ZBAD-ZLLL
Flight info
| Callsign | CES2129 |
|---|---|
| Flight time | 1h 57m |
| Altitude | 38100 |
| Route | PEGSO B215 OROXU |
| Aircraft | A20N/M-SDE2E3FGHIRWXY/LB1 |
Departure
| Time | 2026-04-18 06:30 |
|---|---|
| Airport | Beijing Daxing International Airport (ZBAD) |
Arrival
| Time | 2026-04-18 08:27 |
|---|---|
| Airport | Lanzhou Zhongchuan International Airport (ZLLL) |
| Time | Latitude | Longitude | Altitude | Speed | Heading |
|---|---|---|---|---|---|
| 2026-04-18 05:48 | 39.50388 | 116.41878 | 90 ft | 0 kts | 262° |
| 2026-04-18 06:19 | 39.50388 | 116.41877 | 90 ft | 0 kts | 262° |
| 2026-04-18 06:19 | 39.50386 | 116.41865 | 90 ft | 2 kts | 262° |
| 2026-04-18 06:19 | 39.50384 | 116.41838 | 90 ft | 3 kts | 262° |
| 2026-04-18 06:20 | 39.50372 | 116.41798 | 90 ft | 5 kts | 224° |
| 2026-04-18 06:20 | 39.50325 | 116.41791 | 90 ft | 7 kts | 174° |
| 2026-04-18 06:20 | 39.50267 | 116.41774 | 90 ft | 9 kts | 224° |
| 2026-04-18 06:20 | 39.50248 | 116.41685 | 90 ft | 10 kts | 262° |
| 2026-04-18 06:21 | 39.50238 | 116.41586 | 90 ft | 11 kts | 262° |
| 2026-04-18 06:21 | 39.50227 | 116.41474 | 90 ft | 13 kts | 263° |
| 2026-04-18 06:21 | 39.50215 | 116.41350 | 90 ft | 14 kts | 262° |
| 2026-04-18 06:21 | 39.50203 | 116.41216 | 90 ft | 15 kts | 264° |
| 2026-04-18 06:22 | 39.50190 | 116.41076 | 90 ft | 15 kts | 263° |
| 2026-04-18 06:22 | 39.50176 | 116.40934 | 90 ft | 16 kts | 263° |
| 2026-04-18 06:22 | 39.50161 | 116.40791 | 90 ft | 16 kts | 261° |
| 2026-04-18 06:22 | 39.50149 | 116.40644 | 90 ft | 16 kts | 263° |
| 2026-04-18 06:23 | 39.50135 | 116.40497 | 90 ft | 16 kts | 262° |
| 2026-04-18 06:23 | 39.50120 | 116.40349 | 90 ft | 16 kts | 262° |
| 2026-04-18 06:23 | 39.50118 | 116.40252 | 90 ft | 16 kts | 289° |
| 2026-04-18 06:23 | 39.50216 | 116.40199 | 90 ft | 16 kts | 353° |
| 2026-04-18 06:24 | 39.50329 | 116.40181 | 90 ft | 16 kts | 352° |
| 2026-04-18 06:24 | 39.50444 | 116.40163 | 90 ft | 16 kts | 353° |
| 2026-04-18 06:24 | 39.50563 | 116.40143 | 90 ft | 17 kts | 352° |
| 2026-04-18 06:24 | 39.50683 | 116.40125 | 90 ft | 17 kts | 353° |
| 2026-04-18 06:25 | 39.50802 | 116.40107 | 90 ft | 17 kts | 353° |
| 2026-04-18 06:25 | 39.50924 | 116.40086 | 90 ft | 17 kts | 352° |
| 2026-04-18 06:25 | 39.51047 | 116.40067 | 90 ft | 17 kts | 353° |
| 2026-04-18 06:25 | 39.51173 | 116.40047 | 90 ft | 18 kts | 352° |
| 2026-04-18 06:26 | 39.51297 | 116.40028 | 90 ft | 17 kts | 351° |
| 2026-04-18 06:26 | 39.51420 | 116.40009 | 90 ft | 18 kts | 353° |
| 2026-04-18 06:26 | 39.51547 | 116.39990 | 90 ft | 18 kts | 353° |
| 2026-04-18 06:26 | 39.51639 | 116.39973 | 90 ft | 11 kts | 351° |
| 2026-04-18 06:27 | 39.51711 | 116.39945 | 90 ft | 9 kts | 307° |
| 2026-04-18 06:27 | 39.51712 | 116.39851 | 90 ft | 11 kts | 262° |
| 2026-04-18 06:27 | 39.51705 | 116.39769 | 90 ft | 7 kts | 263° |
| 2026-04-18 06:27 | 39.51704 | 116.39759 | 90 ft | 0 kts | 263° |
| 2026-04-18 06:28 | 39.51704 | 116.39758 | 90 ft | 0 kts | 263° |
| 2026-04-18 06:28 | 39.51703 | 116.39746 | 90 ft | 2 kts | 263° |
| 2026-04-18 06:28 | 39.51698 | 116.39716 | 90 ft | 4 kts | 250° |
| 2026-04-18 06:29 | 39.51675 | 116.39674 | 90 ft | 6 kts | 221° |
| 2026-04-18 06:29 | 39.51626 | 116.39644 | 90 ft | 8 kts | 189° |
| 2026-04-18 06:29 | 39.51595 | 116.39646 | 90 ft | 0 kts | 172° |
| 2026-04-18 06:29 | 39.51355 | 116.39683 | 90 ft | 73 kts | 173° |
| 2026-04-18 06:30 | 39.50608 | 116.39803 | 91 ft | 138 kts | 173° |
| 2026-04-18 06:30 | 39.49517 | 116.39951 | 343 ft | 168 kts | 174° |
| 2026-04-18 06:30 | 39.48367 | 116.40129 | 1120 ft | 165 kts | 175° |
| 2026-04-18 06:30 | 39.47268 | 116.40312 | 1945 ft | 159 kts | 175° |
| 2026-04-18 06:31 | 39.46162 | 116.40459 | 2591 ft | 161 kts | 175° |
| 2026-04-18 06:31 | 39.45050 | 116.40627 | 3250 ft | 162 kts | 175° |
| 2026-04-18 06:31 | 39.43832 | 116.40806 | 3641 ft | 184 kts | 175° |
| 2026-04-18 06:31 | 39.42474 | 116.40997 | 3819 ft | 214 kts | 175° |
| 2026-04-18 06:32 | 39.40861 | 116.41248 | 3818 ft | 244 kts | 174° |
| 2026-04-18 06:32 | 39.39137 | 116.41529 | 3833 ft | 251 kts | 174° |
| 2026-04-18 06:32 | 39.37400 | 116.41812 | 3850 ft | 251 kts | 174° |
| 2026-04-18 06:32 | 39.35625 | 116.41901 | 3915 ft | 257 kts | 191° |
| 2026-04-18 06:33 | 39.33973 | 116.40943 | 4622 ft | 265 kts | 217° |
| 2026-04-18 06:33 | 39.32822 | 116.39198 | 5816 ft | 261 kts | 237° |
| 2026-04-18 06:33 | 39.31944 | 116.37178 | 6805 ft | 262 kts | 238° |
| 2026-04-18 06:33 | 39.31065 | 116.35116 | 7732 ft | 265 kts | 238° |
| 2026-04-18 06:34 | 39.30184 | 116.33044 | 8654 ft | 268 kts | 238° |
| 2026-04-18 06:34 | 39.29281 | 116.30929 | 9545 ft | 271 kts | 238° |
| 2026-04-18 06:34 | 39.28365 | 116.28790 | 10412 ft | 275 kts | 239° |
| 2026-04-18 06:34 | 39.27414 | 116.26572 | 10965 ft | 291 kts | 239° |
| 2026-04-18 06:35 | 39.26403 | 116.24214 | 11460 ft | 307 kts | 239° |
| 2026-04-18 06:35 | 39.25367 | 116.21792 | 12200 ft | 314 kts | 240° |
| 2026-04-18 06:35 | 39.24318 | 116.19343 | 13014 ft | 317 kts | 240° |
| 2026-04-18 06:35 | 39.23238 | 116.16820 | 13795 ft | 322 kts | 241° |
| 2026-04-18 06:36 | 39.22164 | 116.14312 | 14570 ft | 326 kts | 241° |
| 2026-04-18 06:36 | 39.21056 | 116.11727 | 15353 ft | 330 kts | 241° |
| 2026-04-18 06:36 | 39.19947 | 116.09141 | 16111 ft | 334 kts | 241° |
| 2026-04-18 06:36 | 39.18812 | 116.06499 | 16833 ft | 339 kts | 242° |
| 2026-04-18 06:37 | 39.17651 | 116.03803 | 17566 ft | 343 kts | 242° |
| 2026-04-18 06:37 | 39.16492 | 116.01113 | 18293 ft | 347 kts | 242° |
| 2026-04-18 06:37 | 39.15309 | 115.98367 | 19006 ft | 350 kts | 242° |
| 2026-04-18 06:37 | 39.14506 | 115.96510 | 19478 ft | 353 kts | 242° |
| 2026-04-18 06:38 | 39.13307 | 115.93744 | 20145 ft | 357 kts | 242° |
| 2026-04-18 06:38 | 39.12087 | 115.90932 | 20802 ft | 361 kts | 242° |
| 2026-04-18 06:38 | 39.10859 | 115.88107 | 21447 ft | 365 kts | 242° |
| 2026-04-18 06:38 | 39.09611 | 115.85232 | 22101 ft | 368 kts | 242° |
| 2026-04-18 06:39 | 39.08346 | 115.82321 | 22744 ft | 372 kts | 242° |
| 2026-04-18 06:39 | 39.07083 | 115.79415 | 23338 ft | 376 kts | 242° |
| 2026-04-18 06:39 | 39.05793 | 115.76453 | 23940 ft | 379 kts | 242° |
| 2026-04-18 06:39 | 39.04494 | 115.73474 | 24535 ft | 382 kts | 242° |
| 2026-04-18 06:40 | 39.03181 | 115.70464 | 25077 ft | 386 kts | 243° |
| 2026-04-18 06:40 | 39.01874 | 115.67469 | 25571 ft | 390 kts | 243° |
| 2026-04-18 06:40 | 39.00544 | 115.64423 | 26070 ft | 393 kts | 243° |
| 2026-04-18 06:40 | 38.99195 | 115.61337 | 26562 ft | 396 kts | 243° |
| 2026-04-18 06:41 | 38.97831 | 115.58221 | 27044 ft | 399 kts | 243° |
| 2026-04-18 06:41 | 38.96462 | 115.55099 | 27524 ft | 402 kts | 243° |
| 2026-04-18 06:41 | 38.95073 | 115.51906 | 27978 ft | 405 kts | 244° |
| 2026-04-18 06:41 | 38.93796 | 115.48637 | 28419 ft | 407 kts | 248° |
| 2026-04-18 06:42 | 38.92625 | 115.45322 | 28855 ft | 409 kts | 248° |
| 2026-04-18 06:42 | 38.91460 | 115.41992 | 29275 ft | 412 kts | 248° |
| 2026-04-18 06:42 | 38.90264 | 115.38573 | 29687 ft | 415 kts | 249° |
| 2026-04-18 06:42 | 38.89071 | 115.35169 | 30074 ft | 418 kts | 249° |
| 2026-04-18 06:43 | 38.87881 | 115.31776 | 30496 ft | 419 kts | 248° |
| 2026-04-18 06:43 | 38.86670 | 115.28331 | 31056 ft | 418 kts | 248° |
| 2026-04-18 06:43 | 38.85487 | 115.24969 | 31608 ft | 416 kts | 248° |
| 2026-04-18 06:43 | 38.84298 | 115.21592 | 32102 ft | 415 kts | 248° |
| 2026-04-18 06:44 | 38.83112 | 115.18230 | 32556 ft | 414 kts | 248° |
| 2026-04-18 06:44 | 38.81937 | 115.14898 | 32976 ft | 414 kts | 248° |
| 2026-04-18 06:44 | 38.80735 | 115.11500 | 33401 ft | 414 kts | 248° |
| 2026-04-18 06:44 | 38.79547 | 115.08141 | 33812 ft | 413 kts | 248° |
| 2026-04-18 06:45 | 38.78361 | 115.04793 | 34223 ft | 412 kts | 249° |
| 2026-04-18 06:45 | 38.77166 | 115.01421 | 34623 ft | 411 kts | 249° |
| 2026-04-18 06:45 | 38.75991 | 114.98114 | 34937 ft | 410 kts | 249° |
| 2026-04-18 06:45 | 38.74804 | 114.94774 | 35211 ft | 410 kts | 249° |
| 2026-04-18 06:46 | 38.73615 | 114.91434 | 35476 ft | 410 kts | 249° |
| 2026-04-18 06:46 | 38.72427 | 114.88093 | 35725 ft | 410 kts | 249° |
| 2026-04-18 06:46 | 38.71231 | 114.84737 | 35967 ft | 410 kts | 249° |
| 2026-04-18 06:46 | 38.70060 | 114.81453 | 36209 ft | 410 kts | 249° |
| 2026-04-18 06:47 | 38.68875 | 114.78131 | 36429 ft | 410 kts | 249° |
| 2026-04-18 06:47 | 38.67669 | 114.74754 | 36636 ft | 411 kts | 249° |
| 2026-04-18 06:47 | 38.66475 | 114.71416 | 36878 ft | 412 kts | 249° |
| 2026-04-18 06:47 | 38.65277 | 114.68067 | 37119 ft | 412 kts | 249° |
| 2026-04-18 06:48 | 38.64076 | 114.64719 | 37349 ft | 413 kts | 249° |
| 2026-04-18 06:48 | 38.62873 | 114.61369 | 37576 ft | 414 kts | 249° |
| 2026-04-18 06:48 | 38.61670 | 114.58028 | 37785 ft | 414 kts | 249° |
| 2026-04-18 06:48 | 38.60450 | 114.54675 | 37975 ft | 416 kts | 249° |
| 2026-04-18 06:49 | 38.59223 | 114.51302 | 37976 ft | 416 kts | 249° |
| 2026-04-18 06:49 | 38.56803 | 114.44627 | 37984 ft | 416 kts | 249° |
| 2026-04-18 06:50 | 38.54358 | 114.37888 | 37983 ft | 416 kts | 249° |
| 2026-04-18 06:50 | 38.51924 | 114.31186 | 37977 ft | 416 kts | 248° |
| 2026-04-18 06:51 | 38.49476 | 114.24461 | 37973 ft | 417 kts | 248° |
| 2026-04-18 06:51 | 38.47014 | 114.17712 | 37970 ft | 417 kts | 248° |
| 2026-04-18 06:52 | 38.44571 | 114.11023 | 37962 ft | 416 kts | 248° |
| 2026-04-18 06:52 | 38.42121 | 114.04341 | 37972 ft | 416 kts | 248° |
| 2026-04-18 06:53 | 38.39659 | 113.97640 | 37969 ft | 416 kts | 249° |
| 2026-04-18 06:53 | 38.37218 | 113.90991 | 37971 ft | 417 kts | 249° |
| 2026-04-18 06:54 | 38.34745 | 113.84281 | 37989 ft | 416 kts | 249° |
| 2026-04-18 06:54 | 38.32252 | 113.77601 | 37998 ft | 416 kts | 248° |
| 2026-04-18 06:55 | 38.29751 | 113.70979 | 38002 ft | 417 kts | 248° |
| 2026-04-18 06:55 | 38.27222 | 113.64296 | 38035 ft | 417 kts | 248° |
| 2026-04-18 06:56 | 38.24710 | 113.57659 | 38046 ft | 416 kts | 249° |
| 2026-04-18 06:56 | 38.22186 | 113.51000 | 38064 ft | 416 kts | 248° |
| 2026-04-18 06:57 | 38.19652 | 113.44328 | 38082 ft | 416 kts | 249° |
| 2026-04-18 06:57 | 38.15858 | 113.34351 | 38106 ft | 416 kts | 248° |
| 2026-04-18 06:58 | 38.13370 | 113.27683 | 38116 ft | 417 kts | 249° |
| 2026-04-18 06:58 | 38.11587 | 113.22900 | 38134 ft | 417 kts | 249° |
| 2026-04-18 06:59 | 38.09862 | 113.18282 | 38138 ft | 416 kts | 249° |
| 2026-04-18 06:59 | 38.07368 | 113.11612 | 38135 ft | 417 kts | 249° |
| 2026-04-18 07:00 | 38.04867 | 113.04945 | 38134 ft | 417 kts | 249° |
| 2026-04-18 07:00 | 38.02369 | 112.98300 | 38133 ft | 417 kts | 249° |
| 2026-04-18 07:01 | 37.99853 | 112.91624 | 38138 ft | 417 kts | 249° |
| 2026-04-18 07:01 | 37.97356 | 112.85018 | 38121 ft | 417 kts | 249° |
| 2026-04-18 07:02 | 37.94846 | 112.78377 | 38110 ft | 416 kts | 249° |
| 2026-04-18 07:02 | 37.92341 | 112.71769 | 38102 ft | 416 kts | 249° |
| 2026-04-18 07:03 | 37.89835 | 112.65170 | 38078 ft | 415 kts | 249° |
| 2026-04-18 07:03 | 37.87286 | 112.58545 | 38072 ft | 416 kts | 248° |
| 2026-04-18 07:04 | 37.84567 | 112.52083 | 38059 ft | 417 kts | 247° |
| 2026-04-18 07:04 | 37.81819 | 112.45592 | 38057 ft | 417 kts | 247° |
| 2026-04-18 07:05 | 37.79554 | 112.38907 | 38080 ft | 410 kts | 258° |
| 2026-04-18 07:05 | 37.78413 | 112.31883 | 38101 ft | 403 kts | 269° |
| 2026-04-18 07:06 | 37.78400 | 112.24835 | 38124 ft | 398 kts | 279° |
| 2026-04-18 07:06 | 37.79053 | 112.17893 | 38137 ft | 397 kts | 281° |
| 2026-04-18 07:07 | 37.79735 | 112.10950 | 38148 ft | 397 kts | 280° |
| 2026-04-18 07:07 | 37.80402 | 112.04065 | 38151 ft | 396 kts | 280° |
| 2026-04-18 07:08 | 37.81070 | 111.97096 | 38154 ft | 395 kts | 280° |
| 2026-04-18 07:08 | 37.81724 | 111.90190 | 38142 ft | 395 kts | 280° |
| 2026-04-18 07:09 | 37.82376 | 111.83279 | 38150 ft | 394 kts | 281° |
| 2026-04-18 07:09 | 37.83020 | 111.76403 | 38148 ft | 394 kts | 281° |
| 2026-04-18 07:10 | 37.83676 | 111.69531 | 38152 ft | 393 kts | 281° |
| 2026-04-18 07:10 | 37.84439 | 111.62648 | 38143 ft | 393 kts | 282° |
| 2026-04-18 07:11 | 37.85194 | 111.55796 | 38145 ft | 393 kts | 282° |
| 2026-04-18 07:11 | 37.85932 | 111.48930 | 38142 ft | 393 kts | 281° |
| 2026-04-18 07:12 | 37.86548 | 111.42009 | 38133 ft | 394 kts | 280° |
| 2026-04-18 07:12 | 37.87137 | 111.35165 | 38135 ft | 392 kts | 280° |
| 2026-04-18 07:13 | 37.87730 | 111.28284 | 38129 ft | 393 kts | 280° |
| 2026-04-18 07:13 | 37.88325 | 111.21401 | 38113 ft | 390 kts | 280° |
| 2026-04-18 07:14 | 37.88913 | 111.14558 | 38105 ft | 390 kts | 280° |
| 2026-04-18 07:14 | 37.89492 | 111.07766 | 38091 ft | 390 kts | 280° |
| 2026-04-18 07:15 | 37.90073 | 111.00926 | 38064 ft | 389 kts | 280° |
| 2026-04-18 07:15 | 37.90651 | 110.94076 | 38046 ft | 389 kts | 280° |
| 2026-04-18 07:16 | 37.91217 | 110.87270 | 38033 ft | 389 kts | 280° |
| 2026-04-18 07:16 | 37.91792 | 110.80399 | 38036 ft | 390 kts | 280° |
| 2026-04-18 07:17 | 37.92357 | 110.73548 | 38037 ft | 390 kts | 280° |
| 2026-04-18 07:17 | 37.92912 | 110.66766 | 38033 ft | 389 kts | 280° |
| 2026-04-18 07:18 | 37.93576 | 110.59965 | 38029 ft | 388 kts | 281° |
| 2026-04-18 07:18 | 37.94274 | 110.53172 | 38029 ft | 387 kts | 282° |
| 2026-04-18 07:19 | 37.94959 | 110.46388 | 38028 ft | 388 kts | 282° |
| 2026-04-18 07:19 | 37.95643 | 110.39580 | 38031 ft | 388 kts | 282° |
| 2026-04-18 07:20 | 37.96325 | 110.32744 | 38036 ft | 387 kts | 281° |
| 2026-04-18 07:20 | 37.96997 | 110.25951 | 38036 ft | 387 kts | 281° |
| 2026-04-18 07:21 | 37.97664 | 110.19192 | 38039 ft | 387 kts | 281° |
| 2026-04-18 07:21 | 37.98326 | 110.12390 | 38039 ft | 387 kts | 281° |
| 2026-04-18 07:22 | 37.98985 | 110.05588 | 38037 ft | 387 kts | 281° |
| 2026-04-18 07:22 | 37.99638 | 109.98832 | 38037 ft | 387 kts | 282° |
| 2026-04-18 07:23 | 38.00293 | 109.92016 | 38031 ft | 387 kts | 282° |
| 2026-04-18 07:23 | 38.00939 | 109.85226 | 38030 ft | 387 kts | 281° |
| 2026-04-18 07:24 | 38.01581 | 109.78449 | 38014 ft | 387 kts | 282° |
| 2026-04-18 07:24 | 38.02216 | 109.71697 | 38016 ft | 387 kts | 282° |
| 2026-04-18 07:25 | 38.02848 | 109.64948 | 38014 ft | 386 kts | 282° |
| 2026-04-18 07:25 | 38.03482 | 109.58137 | 38023 ft | 386 kts | 282° |
| 2026-04-18 07:26 | 38.04109 | 109.51355 | 38021 ft | 385 kts | 281° |
| 2026-04-18 07:26 | 38.04727 | 109.44618 | 38024 ft | 386 kts | 282° |
| 2026-04-18 07:27 | 38.05344 | 109.37870 | 38022 ft | 385 kts | 281° |
| 2026-04-18 07:27 | 38.05960 | 109.31046 | 38025 ft | 386 kts | 281° |
| 2026-04-18 07:28 | 38.06566 | 109.24290 | 38030 ft | 386 kts | 281° |
| 2026-04-18 07:28 | 38.07173 | 109.17535 | 38021 ft | 384 kts | 281° |
| 2026-04-18 07:29 | 38.07773 | 109.10790 | 38024 ft | 384 kts | 281° |
| 2026-04-18 07:29 | 38.08370 | 109.04022 | 38011 ft | 385 kts | 281° |
| 2026-04-18 07:30 | 38.08960 | 108.97285 | 38011 ft | 384 kts | 281° |
| 2026-04-18 07:30 | 38.09548 | 108.90555 | 38008 ft | 383 kts | 281° |
| 2026-04-18 07:31 | 38.10133 | 108.83818 | 38023 ft | 382 kts | 281° |
| 2026-04-18 07:31 | 38.10712 | 108.77074 | 38022 ft | 383 kts | 281° |
| 2026-04-18 07:32 | 38.11286 | 108.70361 | 38024 ft | 383 kts | 281° |
| 2026-04-18 07:32 | 38.11852 | 108.63698 | 38026 ft | 382 kts | 281° |
| 2026-04-18 07:33 | 38.12417 | 108.57007 | 38025 ft | 381 kts | 281° |
| 2026-04-18 07:33 | 38.12978 | 108.50296 | 38032 ft | 381 kts | 281° |
| 2026-04-18 07:34 | 38.13537 | 108.43591 | 38034 ft | 379 kts | 281° |
| 2026-04-18 07:34 | 38.14085 | 108.36958 | 38033 ft | 379 kts | 281° |
| 2026-04-18 07:35 | 38.14635 | 108.30238 | 38037 ft | 379 kts | 281° |
| 2026-04-18 07:35 | 38.15113 | 108.25298 | 38038 ft | 379 kts | 282° |
| 2026-04-18 07:36 | 38.15787 | 108.18620 | 38033 ft | 380 kts | 282° |
| 2026-04-18 07:36 | 38.16443 | 108.12000 | 38025 ft | 379 kts | 282° |
| 2026-04-18 07:37 | 38.17099 | 108.05321 | 38023 ft | 379 kts | 282° |
| 2026-04-18 07:37 | 38.17754 | 107.98593 | 38026 ft | 379 kts | 282° |
| 2026-04-18 07:38 | 38.18398 | 107.91929 | 38032 ft | 378 kts | 282° |
| 2026-04-18 07:38 | 38.19035 | 107.85292 | 38038 ft | 378 kts | 282° |
| 2026-04-18 07:39 | 38.19675 | 107.78608 | 38037 ft | 378 kts | 281° |
| 2026-04-18 07:39 | 38.20342 | 107.72000 | 38032 ft | 377 kts | 282° |
| 2026-04-18 07:40 | 38.21107 | 107.65371 | 38126 ft | 376 kts | 283° |
| 2026-04-18 07:40 | 38.21863 | 107.58785 | 38036 ft | 376 kts | 283° |
| 2026-04-18 07:41 | 38.22612 | 107.52229 | 38020 ft | 375 kts | 283° |
| 2026-04-18 07:41 | 38.23346 | 107.45727 | 38013 ft | 375 kts | 283° |
| 2026-04-18 07:42 | 38.24086 | 107.39138 | 38018 ft | 375 kts | 283° |
| 2026-04-18 07:42 | 38.24829 | 107.32508 | 38025 ft | 375 kts | 282° |
| 2026-04-18 07:43 | 38.25560 | 107.25912 | 38030 ft | 376 kts | 282° |
| 2026-04-18 07:43 | 38.26287 | 107.19338 | 38030 ft | 375 kts | 283° |
| 2026-04-18 07:44 | 38.27010 | 107.12755 | 38024 ft | 374 kts | 282° |
| 2026-04-18 07:44 | 38.27730 | 107.06165 | 38022 ft | 375 kts | 283° |
| 2026-04-18 07:45 | 38.28448 | 106.99592 | 38022 ft | 373 kts | 282° |
| 2026-04-18 07:45 | 38.29149 | 106.93066 | 38026 ft | 373 kts | 282° |
| 2026-04-18 07:46 | 38.29861 | 106.86461 | 38021 ft | 374 kts | 283° |
| 2026-04-18 07:46 | 38.30566 | 106.79858 | 38009 ft | 375 kts | 283° |
| 2026-04-18 07:47 | 38.31273 | 106.73247 | 38000 ft | 374 kts | 282° |
| 2026-04-18 07:47 | 38.31970 | 106.66663 | 38005 ft | 375 kts | 283° |
| 2026-04-18 07:48 | 38.32665 | 106.60096 | 37998 ft | 375 kts | 282° |
| 2026-04-18 07:48 | 38.33353 | 106.53526 | 37945 ft | 375 kts | 282° |
| 2026-04-18 07:49 | 38.33698 | 106.50188 | 37619 ft | 373 kts | 283° |
| 2026-04-18 07:49 | 38.34065 | 106.46936 | 37304 ft | 368 kts | 284° |
| 2026-04-18 07:49 | 38.34541 | 106.43721 | 36992 ft | 365 kts | 287° |
| 2026-04-18 07:49 | 38.35124 | 106.40592 | 36685 ft | 360 kts | 289° |
| 2026-04-18 07:50 | 38.35817 | 106.37511 | 36373 ft | 358 kts | 291° |
| 2026-04-18 07:50 | 38.36618 | 106.34485 | 36058 ft | 357 kts | 293° |
| 2026-04-18 07:50 | 38.37491 | 106.31508 | 35750 ft | 357 kts | 294° |
| 2026-04-18 07:50 | 38.38366 | 106.28567 | 35443 ft | 357 kts | 294° |
| 2026-04-18 07:51 | 38.39251 | 106.25597 | 35137 ft | 358 kts | 294° |
| 2026-04-18 07:51 | 38.40150 | 106.22575 | 34824 ft | 358 kts | 294° |
| 2026-04-18 07:51 | 38.41036 | 106.19598 | 34513 ft | 358 kts | 293° |
| 2026-04-18 07:51 | 38.41654 | 106.16501 | 34214 ft | 365 kts | 282° |
| 2026-04-18 07:52 | 38.41755 | 106.13197 | 33935 ft | 373 kts | 272° |
| 2026-04-18 07:52 | 38.41329 | 106.09873 | 33658 ft | 384 kts | 262° |
| 2026-04-18 07:52 | 38.40355 | 106.06637 | 33382 ft | 397 kts | 250° |
| 2026-04-18 07:52 | 38.38864 | 106.03662 | 33115 ft | 408 kts | 242° |
| 2026-04-18 07:53 | 38.37166 | 106.00768 | 32845 ft | 409 kts | 241° |
| 2026-04-18 07:53 | 38.35440 | 105.97878 | 32571 ft | 410 kts | 240° |
| 2026-04-18 07:53 | 38.33686 | 105.94949 | 32296 ft | 411 kts | 240° |
| 2026-04-18 07:53 | 38.31962 | 105.92075 | 32028 ft | 412 kts | 240° |
| 2026-04-18 07:54 | 38.30205 | 105.89151 | 31749 ft | 412 kts | 240° |
| 2026-04-18 07:54 | 38.28461 | 105.86240 | 31477 ft | 413 kts | 240° |
| 2026-04-18 07:54 | 38.26708 | 105.83318 | 31205 ft | 415 kts | 240° |
| 2026-04-18 07:54 | 38.24943 | 105.80379 | 30934 ft | 415 kts | 240° |
| 2026-04-18 07:55 | 38.23207 | 105.77490 | 30661 ft | 415 kts | 240° |
| 2026-04-18 07:55 | 38.21444 | 105.74554 | 30394 ft | 416 kts | 240° |
| 2026-04-18 07:55 | 38.19674 | 105.71613 | 30127 ft | 416 kts | 239° |
| 2026-04-18 07:55 | 38.17920 | 105.68703 | 29866 ft | 415 kts | 239° |
| 2026-04-18 07:56 | 38.16180 | 105.65822 | 29605 ft | 413 kts | 239° |
| 2026-04-18 07:56 | 38.14428 | 105.62920 | 29337 ft | 411 kts | 239° |
| 2026-04-18 07:56 | 38.12685 | 105.60032 | 29073 ft | 410 kts | 239° |
| 2026-04-18 07:56 | 38.10950 | 105.57159 | 28808 ft | 408 kts | 239° |
| 2026-04-18 07:57 | 38.09225 | 105.54304 | 28543 ft | 407 kts | 239° |
| 2026-04-18 07:57 | 38.07511 | 105.51471 | 28280 ft | 405 kts | 239° |
| 2026-04-18 07:57 | 38.05777 | 105.48609 | 28014 ft | 403 kts | 239° |
| 2026-04-18 07:57 | 38.04066 | 105.45785 | 27750 ft | 402 kts | 239° |
| 2026-04-18 07:58 | 38.00694 | 105.40230 | 27231 ft | 397 kts | 238° |
| 2026-04-18 07:58 | 37.98990 | 105.37427 | 26965 ft | 396 kts | 239° |
| 2026-04-18 07:58 | 37.97306 | 105.34664 | 26701 ft | 395 kts | 238° |
| 2026-04-18 07:59 | 37.95620 | 105.31905 | 26439 ft | 394 kts | 238° |
| 2026-04-18 07:59 | 37.93942 | 105.29157 | 26178 ft | 392 kts | 238° |
| 2026-04-18 07:59 | 37.92283 | 105.26444 | 25920 ft | 390 kts | 238° |
| 2026-04-18 07:59 | 37.90636 | 105.23749 | 25658 ft | 388 kts | 238° |
| 2026-04-18 08:00 | 37.88977 | 105.21034 | 25393 ft | 386 kts | 238° |
| 2026-04-18 08:00 | 37.87317 | 105.18322 | 25132 ft | 385 kts | 238° |
| 2026-04-18 08:00 | 37.85675 | 105.15642 | 24867 ft | 383 kts | 238° |
| 2026-04-18 08:00 | 37.84044 | 105.12977 | 24600 ft | 381 kts | 237° |
| 2026-04-18 08:01 | 37.82420 | 105.10329 | 24323 ft | 379 kts | 237° |
| 2026-04-18 08:01 | 37.80805 | 105.07694 | 24049 ft | 378 kts | 237° |
| 2026-04-18 08:01 | 37.79189 | 105.05062 | 23766 ft | 376 kts | 237° |
| 2026-04-18 08:01 | 37.77577 | 105.02438 | 23487 ft | 374 kts | 237° |
| 2026-04-18 08:02 | 37.75989 | 104.99857 | 23212 ft | 373 kts | 237° |
| 2026-04-18 08:02 | 37.74401 | 104.97276 | 22936 ft | 371 kts | 237° |
| 2026-04-18 08:02 | 37.72825 | 104.94716 | 22661 ft | 369 kts | 237° |
| 2026-04-18 08:02 | 37.71239 | 104.92145 | 22383 ft | 367 kts | 237° |
| 2026-04-18 08:03 | 37.69676 | 104.89613 | 22114 ft | 366 kts | 237° |
| 2026-04-18 08:03 | 37.68103 | 104.87064 | 21834 ft | 364 kts | 237° |
| 2026-04-18 08:03 | 37.66545 | 104.84539 | 21565 ft | 364 kts | 236° |
| 2026-04-18 08:03 | 37.64971 | 104.81992 | 21289 ft | 363 kts | 236° |
| 2026-04-18 08:04 | 37.63426 | 104.79496 | 21024 ft | 361 kts | 236° |
| 2026-04-18 08:04 | 37.61862 | 104.76971 | 20757 ft | 360 kts | 236° |
| 2026-04-18 08:04 | 37.60325 | 104.74491 | 20493 ft | 359 kts | 236° |
| 2026-04-18 08:04 | 37.58793 | 104.72021 | 20231 ft | 357 kts | 236° |
| 2026-04-18 08:05 | 37.57253 | 104.69538 | 19966 ft | 356 kts | 236° |
| 2026-04-18 08:05 | 37.55723 | 104.67077 | 19717 ft | 355 kts | 236° |
| 2026-04-18 08:05 | 37.54207 | 104.64632 | 19665 ft | 355 kts | 236° |
| 2026-04-18 08:05 | 37.52674 | 104.62168 | 19669 ft | 355 kts | 236° |
| 2026-04-18 08:06 | 37.51159 | 104.59734 | 19673 ft | 355 kts | 236° |
| 2026-04-18 08:06 | 37.49625 | 104.57267 | 19674 ft | 355 kts | 235° |
| 2026-04-18 08:06 | 37.48093 | 104.54810 | 19672 ft | 355 kts | 235° |
| 2026-04-18 08:06 | 37.46568 | 104.52368 | 19671 ft | 355 kts | 235° |
| 2026-04-18 08:07 | 37.45037 | 104.49916 | 19669 ft | 355 kts | 236° |
| 2026-04-18 08:07 | 37.43532 | 104.47445 | 19677 ft | 355 kts | 236° |
| 2026-04-18 08:07 | 37.42034 | 104.44957 | 19681 ft | 354 kts | 236° |
| 2026-04-18 08:07 | 37.40551 | 104.42491 | 19683 ft | 355 kts | 236° |
| 2026-04-18 08:08 | 37.39038 | 104.39977 | 19687 ft | 356 kts | 236° |
| 2026-04-18 08:08 | 37.37542 | 104.37498 | 19687 ft | 355 kts | 236° |
| 2026-04-18 08:08 | 37.36044 | 104.35017 | 19682 ft | 354 kts | 236° |
| 2026-04-18 08:08 | 37.34537 | 104.32526 | 19683 ft | 354 kts | 236° |
| 2026-04-18 08:09 | 37.33034 | 104.30042 | 19686 ft | 355 kts | 236° |
| 2026-04-18 08:09 | 37.31520 | 104.27543 | 19690 ft | 355 kts | 236° |
| 2026-04-18 08:09 | 37.29930 | 104.25140 | 19686 ft | 357 kts | 228° |
| 2026-04-18 08:09 | 37.28003 | 104.23129 | 19690 ft | 362 kts | 218° |
| 2026-04-18 08:10 | 37.25787 | 104.21576 | 19454 ft | 365 kts | 207° |
| 2026-04-18 08:10 | 37.23362 | 104.20576 | 19201 ft | 368 kts | 196° |
| 2026-04-18 08:10 | 37.20764 | 104.20157 | 18947 ft | 371 kts | 185° |
| 2026-04-18 08:10 | 37.18183 | 104.20364 | 18698 ft | 374 kts | 173° |
| 2026-04-18 08:11 | 37.15593 | 104.21152 | 18455 ft | 374 kts | 167° |
| 2026-04-18 08:11 | 37.13084 | 104.22096 | 18207 ft | 373 kts | 166° |
| 2026-04-18 08:11 | 37.10607 | 104.23045 | 17966 ft | 370 kts | 166° |
| 2026-04-18 08:11 | 37.08154 | 104.23981 | 17723 ft | 369 kts | 166° |
| 2026-04-18 08:12 | 37.05671 | 104.24915 | 17476 ft | 368 kts | 166° |
| 2026-04-18 08:12 | 37.03228 | 104.25829 | 17240 ft | 365 kts | 166° |
| 2026-04-18 08:12 | 37.00774 | 104.26743 | 17016 ft | 364 kts | 166° |
| 2026-04-18 08:12 | 36.98371 | 104.27634 | 16778 ft | 361 kts | 166° |
| 2026-04-18 08:13 | 36.95944 | 104.28532 | 16528 ft | 360 kts | 166° |
| 2026-04-18 08:13 | 36.93534 | 104.29422 | 16277 ft | 358 kts | 166° |
| 2026-04-18 08:13 | 36.91133 | 104.30312 | 16021 ft | 357 kts | 166° |
| 2026-04-18 08:13 | 36.88702 | 104.31207 | 15885 ft | 356 kts | 166° |
| 2026-04-18 08:14 | 36.86303 | 104.32092 | 15870 ft | 357 kts | 165° |
| 2026-04-18 08:14 | 36.83884 | 104.32986 | 15858 ft | 358 kts | 165° |
| 2026-04-18 08:14 | 36.81522 | 104.33855 | 15844 ft | 358 kts | 165° |
| 2026-04-18 08:14 | 36.79092 | 104.34751 | 15834 ft | 358 kts | 165° |
| 2026-04-18 08:15 | 36.76702 | 104.35581 | 15824 ft | 357 kts | 171° |
| 2026-04-18 08:15 | 36.74213 | 104.35658 | 15819 ft | 351 kts | 192° |
| 2026-04-18 08:15 | 36.71904 | 104.34718 | 15673 ft | 346 kts | 210° |
| 2026-04-18 08:15 | 36.69930 | 104.33047 | 15434 ft | 343 kts | 219° |
| 2026-04-18 08:16 | 36.68008 | 104.31216 | 15183 ft | 341 kts | 219° |
| 2026-04-18 08:16 | 36.66207 | 104.29324 | 14925 ft | 338 kts | 230° |
| 2026-04-18 08:16 | 36.64955 | 104.26856 | 14684 ft | 335 kts | 249° |
| 2026-04-18 08:16 | 36.64449 | 104.24052 | 14453 ft | 334 kts | 267° |
| 2026-04-18 08:17 | 36.64720 | 104.21175 | 14226 ft | 335 kts | 286° |
| 2026-04-18 08:17 | 36.65728 | 104.18578 | 14004 ft | 337 kts | 303° |
| 2026-04-18 08:17 | 36.67150 | 104.16193 | 13774 ft | 337 kts | 306° |
| 2026-04-18 08:17 | 36.68563 | 104.13877 | 13544 ft | 336 kts | 306° |
| 2026-04-18 08:18 | 36.69980 | 104.11546 | 13320 ft | 335 kts | 306° |
| 2026-04-18 08:18 | 36.71301 | 104.09354 | 13109 ft | 335 kts | 306° |
| 2026-04-18 08:18 | 36.72693 | 104.07034 | 12882 ft | 334 kts | 306° |
| 2026-04-18 08:18 | 36.74070 | 104.04726 | 12659 ft | 332 kts | 306° |
| 2026-04-18 08:19 | 36.75470 | 104.02375 | 12427 ft | 331 kts | 306° |
| 2026-04-18 08:19 | 36.76834 | 104.00081 | 12205 ft | 330 kts | 306° |
| 2026-04-18 08:19 | 36.78107 | 103.97688 | 11974 ft | 329 kts | 296° |
| 2026-04-18 08:19 | 36.78783 | 103.94977 | 11754 ft | 329 kts | 278° |
| 2026-04-18 08:20 | 36.78838 | 103.92125 | 11540 ft | 330 kts | 268° |
| 2026-04-18 08:20 | 36.78708 | 103.89237 | 11317 ft | 328 kts | 268° |
| 2026-04-18 08:20 | 36.78569 | 103.86430 | 11036 ft | 322 kts | 268° |
| 2026-04-18 08:20 | 36.78440 | 103.83653 | 10731 ft | 315 kts | 269° |
| 2026-04-18 08:21 | 36.78326 | 103.80968 | 10436 ft | 309 kts | 269° |
| 2026-04-18 08:21 | 36.78218 | 103.78297 | 10148 ft | 302 kts | 270° |
| 2026-04-18 08:21 | 36.78116 | 103.75703 | 10036 ft | 289 kts | 270° |
| 2026-04-18 08:21 | 36.78021 | 103.73279 | 10031 ft | 274 kts | 270° |
| 2026-04-18 08:22 | 36.77927 | 103.70917 | 10028 ft | 273 kts | 270° |
| 2026-04-18 08:22 | 36.77834 | 103.68537 | 10037 ft | 273 kts | 270° |
| 2026-04-18 08:22 | 36.77529 | 103.66192 | 10036 ft | 274 kts | 250° |
| 2026-04-18 08:22 | 36.76458 | 103.64315 | 10036 ft | 262 kts | 221° |
| 2026-04-18 08:23 | 36.74878 | 103.63313 | 9957 ft | 254 kts | 193° |
| 2026-04-18 08:23 | 36.73244 | 103.63087 | 9894 ft | 250 kts | 179° |
| 2026-04-18 08:23 | 36.71504 | 103.63195 | 9645 ft | 247 kts | 175° |
| 2026-04-18 08:23 | 36.69787 | 103.63377 | 9332 ft | 246 kts | 174° |
| 2026-04-18 08:24 | 36.68087 | 103.63528 | 9026 ft | 237 kts | 176° |
| 2026-04-18 08:24 | 36.66484 | 103.63637 | 8731 ft | 227 kts | 176° |
| 2026-04-18 08:24 | 36.64936 | 103.63729 | 8535 ft | 212 kts | 177° |
| 2026-04-18 08:24 | 36.63480 | 103.63814 | 8228 ft | 200 kts | 176° |
| 2026-04-18 08:25 | 36.62140 | 103.63897 | 7952 ft | 186 kts | 176° |
| 2026-04-18 08:25 | 36.60894 | 103.63975 | 7741 ft | 170 kts | 176° |
| 2026-04-18 08:25 | 36.59748 | 103.64047 | 7504 ft | 156 kts | 176° |
| 2026-04-18 08:25 | 36.58699 | 103.64115 | 7316 ft | 148 kts | 177° |
| 2026-04-18 08:26 | 36.57686 | 103.64181 | 7135 ft | 147 kts | 177° |
| 2026-04-18 08:26 | 36.56665 | 103.64240 | 6954 ft | 146 kts | 178° |
| 2026-04-18 08:26 | 36.55643 | 103.64300 | 6758 ft | 145 kts | 178° |
| 2026-04-18 08:26 | 36.54637 | 103.64365 | 6592 ft | 143 kts | 176° |
| 2026-04-18 08:27 | 36.53641 | 103.64433 | 6442 ft | 140 kts | 177° |
| 2026-04-18 08:27 | 36.52810 | 103.64487 | 6413 ft | 96 kts | 177° |
| 2026-04-18 08:27 | 36.52312 | 103.64513 | 6399 ft | 46 kts | 189° |
| 2026-04-18 08:27 | 36.52110 | 103.64432 | 6392 ft | 20 kts | 204° |
| 2026-04-18 08:28 | 36.52102 | 103.64339 | 6390 ft | 14 kts | 346° |
| 2026-04-18 08:28 | 36.52177 | 103.64330 | 6393 ft | 9 kts | 357° |
| 2026-04-18 08:28 | 36.52230 | 103.64320 | 6394 ft | 6 kts | 336° |
| 2026-04-18 08:28 | 36.52249 | 103.64271 | 6393 ft | 8 kts | 256° |
| 2026-04-18 08:29 | 36.52192 | 103.64234 | 6391 ft | 11 kts | 176° |
| 2026-04-18 08:29 | 36.52107 | 103.64241 | 6389 ft | 13 kts | 176° |
| 2026-04-18 08:29 | 36.52005 | 103.64248 | 6386 ft | 15 kts | 177° |
| 2026-04-18 08:29 | 36.51921 | 103.64216 | 6384 ft | 8 kts | 255° |
| 2026-04-18 08:30 | 36.51949 | 103.64166 | 6383 ft | 8 kts | 350° |
| 2026-04-18 08:30 | 36.52002 | 103.64160 | 6385 ft | 7 kts | 357° |
| 2026-04-18 08:30 | 36.52048 | 103.64157 | 6386 ft | 6 kts | 357° |
| 2026-04-18 08:30 | 36.52085 | 103.64155 | 6387 ft | 4 kts | 358° |
| 2026-04-18 08:31 | 36.52116 | 103.64153 | 6388 ft | 3 kts | 358° |
| 2026-04-18 08:31 | 36.52139 | 103.64149 | 6388 ft | 3 kts | 341° |
| 2026-04-18 08:31 | 36.52153 | 103.64136 | 6389 ft | 2 kts | 314° |
| 2026-04-18 08:31 | 36.52168 | 103.64115 | 6389 ft | 3 kts | 309° |
| 2026-04-18 08:32 | 36.52187 | 103.64085 | 6389 ft | 4 kts | 308° |
| 2026-04-18 08:32 | 36.52236 | 103.64008 | 6389 ft | 4 kts | 308° |
| 2026-04-18 08:32 | 36.52277 | 103.63944 | 6390 ft | 3 kts | 309° |
| 2026-04-18 08:32 | 36.52280 | 103.63917 | 6390 ft | 3 kts | 239° |
| 2026-04-18 08:33 | 36.52257 | 103.63892 | 6389 ft | 2 kts | 218° |
| 2026-04-18 08:33 | 36.52235 | 103.63870 | 6388 ft | 3 kts | 218° |
| 2026-04-18 08:33 | 36.52223 | 103.63859 | 6387 ft | 0 kts | 217° |
| 2026-04-18 08:33 | 36.52222 | 103.63859 | 6387 ft | 0 kts | 217° |